sensor_id;sensor_type;location;lat;lon;timestamp;temperature;humidity
14670;DHT22;7423;48.722;9.350;2023-02-28T00:01:31;4.00;94.90
14670;DHT22;7423;48.722;9.350;2023-02-28T00:03:59;4.00;95.00
14670;DHT22;7423;48.722;9.350;2023-02-28T00:06:27;4.00;94.90
14670;DHT22;7423;48.722;9.350;2023-02-28T00:08:54;4.00;94.90
14670;DHT22;7423;48.722;9.350;2023-02-28T00:11:21;4.00;95.00
14670;DHT22;7423;48.722;9.350;2023-02-28T00:13:48;4.00;95.00
14670;DHT22;7423;48.722;9.350;2023-02-28T00:16:20;4.00;95.00
14670;DHT22;7423;48.722;9.350;2023-02-28T00:18:48;3.90;95.10
14670;DHT22;7423;48.722;9.350;2023-02-28T00:21:17;3.90;95.20
14670;DHT22;7423;48.722;9.350;2023-02-28T00:23:44;3.90;95.20
14670;DHT22;7423;48.722;9.350;2023-02-28T00:26:12;3.90;95.20
14670;DHT22;7423;48.722;9.350;2023-02-28T00:28:39;3.90;95.20
14670;DHT22;7423;48.722;9.350;2023-02-28T00:31:06;3.90;95.30
14670;DHT22;7423;48.722;9.350;2023-02-28T00:33:33;3.80;95.30
14670;DHT22;7423;48.722;9.350;2023-02-28T00:36:09;3.80;95.40
14670;DHT22;7423;48.722;9.350;2023-02-28T00:38:38;3.80;95.40
14670;DHT22;7423;48.722;9.350;2023-02-28T00:41:06;3.80;95.40
14670;DHT22;7423;48.722;9.350;2023-02-28T00:43:34;3.80;95.40
14670;DHT22;7423;48.722;9.350;2023-02-28T00:46:03;3.70;95.40
14670;DHT22;7423;48.722;9.350;2023-02-28T00:48:30;3.70;95.40
14670;DHT22;7423;48.722;9.350;2023-02-28T00:50:57;3.70;95.50
14670;DHT22;7423;48.722;9.350;2023-02-28T00:53:24;3.70;95.50
14670;DHT22;7423;48.722;9.350;2023-02-28T00:55:51;3.70;95.60
14670;DHT22;7423;48.722;9.350;2023-02-28T00:58:18;3.70;95.60
14670;DHT22;7423;48.722;9.350;2023-02-28T01:00:45;3.70;95.60
14670;DHT22;7423;48.722;9.350;2023-02-28T01:03:17;3.70;95.70
14670;DHT22;7423;48.722;9.350;2023-02-28T01:05:45;3.70;95.70
14670;DHT22;7423;48.722;9.350;2023-02-28T01:08:14;3.60;95.70
14670;DHT22;7423;48.722;9.350;2023-02-28T01:10:41;3.60;95.80
14670;DHT22;7423;48.722;9.350;2023-02-28T01:13:09;3.60;95.90
14670;DHT22;7423;48.722;9.350;2023-02-28T01:15:36;3.60;96.00
14670;DHT22;7423;48.722;9.350;2023-02-28T01:18:04;3.70;96.00
14670;DHT22;7423;48.722;9.350;2023-02-28T01:20:31;3.70;96.00
14670;DHT22;7423;48.722;9.350;2023-02-28T01:22:58;3.70;96.10
14670;DHT22;7423;48.722;9.350;2023-02-28T01:25:25;3.70;96.10
14670;DHT22;7423;48.722;9.350;2023-02-28T01:27:52;3.70;96.20
14670;DHT22;7423;48.722;9.350;2023-02-28T01:30:19;3.70;96.20
14670;DHT22;7423;48.722;9.350;2023-02-28T01:32:46;3.60;96.30
14670;DHT22;7423;48.722;9.350;2023-02-28T01:35:13;3.60;96.40
14670;DHT22;7423;48.722;9.350;2023-02-28T01:37:40;3.60;96.50
14670;DHT22;7423;48.722;9.350;2023-02-28T01:40:07;3.60;96.50
14670;DHT22;7423;48.722;9.350;2023-02-28T01:42:35;3.60;96.60
14670;DHT22;7423;48.722;9.350;2023-02-28T01:45:29;3.50;96.70
14670;DHT22;7423;48.722;9.350;2023-02-28T01:48:06;3.50;96.80
14670;DHT22;7423;48.722;9.350;2023-02-28T01:50:39;3.50;96.80
14670;DHT22;7423;48.722;9.350;2023-02-28T01:53:12;3.50;96.90
14670;DHT22;7423;48.722;9.350;2023-02-28T01:55:42;3.50;96.90
14670;DHT22;7423;48.722;9.350;2023-02-28T01:58:12;3.50;97.00
14670;DHT22;7423;48.722;9.350;2023-02-28T02:00:39;3.50;97.10
14670;DHT22;7423;48.722;9.350;2023-02-28T02:03:11;3.50;97.10
14670;DHT22;7423;48.722;9.350;2023-02-28T02:05:42;3.50;97.20
14670;DHT22;7423;48.722;9.350;2023-02-28T02:08:18;3.50;97.30
14670;DHT22;7423;48.722;9.350;2023-02-28T02:10:58;3.50;97.30
14670;DHT22;7423;48.722;9.350;2023-02-28T02:37:49;3.40;97.80
14670;DHT22;7423;48.722;9.350;2023-02-28T02:40:25;3.40;97.90
14670;DHT22;7423;48.722;9.350;2023-02-28T02:42:59;3.40;97.90
14670;DHT22;7423;48.722;9.350;2023-02-28T02:45:46;3.40;97.90
14670;DHT22;7423;48.722;9.350;2023-02-28T02:48:18;3.40;98.00
14670;DHT22;7423;48.722;9.350;2023-02-28T02:50:54;3.40;98.10
14670;DHT22;7423;48.722;9.350;2023-02-28T02:53:27;3.30;98.20
14670;DHT22;7423;48.722;9.350;2023-02-28T02:55:58;3.30;98.30
14670;DHT22;7423;48.722;9.350;2023-02-28T02:58:30;3.30;98.40
14670;DHT22;7423;48.722;9.350;2023-02-28T03:01:01;3.40;98.40
14670;DHT22;7423;48.722;9.350;2023-02-28T03:03:30;3.30;98.60
14670;DHT22;7423;48.722;9.350;2023-02-28T03:06:00;3.30;98.50
14670;DHT22;7423;48.722;9.350;2023-02-28T03:08:29;3.30;98.50
14670;DHT22;7423;48.722;9.350;2023-02-28T03:11:03;3.40;98.60
14670;DHT22;7423;48.722;9.350;2023-02-28T03:19:47;3.40;98.60
14670;DHT22;7423;48.722;9.350;2023-02-28T03:25:58;3.50;98.60
14670;DHT22;7423;48.722;9.350;2023-02-28T03:28:43;3.50;98.60
14670;DHT22;7423;48.722;9.350;2023-02-28T03:31:21;3.50;98.70
14670;DHT22;7423;48.722;9.350;2023-02-28T03:34:09;3.50;98.80
14670;DHT22;7423;48.722;9.350;2023-02-28T03:36:42;3.40;98.80
14670;DHT22;7423;48.722;9.350;2023-02-28T03:39:21;3.40;98.90
14670;DHT22;7423;48.722;9.350;2023-02-28T03:42:11;3.30;99.00
14670;DHT22;7423;48.722;9.350;2023-02-28T03:47:32;3.30;99.10
14670;DHT22;7423;48.722;9.350;2023-02-28T03:50:08;3.40;99.10
14670;DHT22;7423;48.722;9.350;2023-02-28T03:52:47;3.40;99.20
14670;DHT22;7423;48.722;9.350;2023-02-28T03:55:37;3.40;99.10
14670;DHT22;7423;48.722;9.350;2023-02-28T04:00:49;3.40;99.20
14670;DHT22;7423;48.722;9.350;2023-02-28T04:03:19;3.40;99.20
14670;DHT22;7423;48.722;9.350;2023-02-28T04:05:54;3.40;99.20
14670;DHT22;7423;48.722;9.350;2023-02-28T04:08:22;3.40;99.60
14670;DHT22;7423;48.722;9.350;2023-02-28T04:11:23;3.50;99.30
14670;DHT22;7423;48.722;9.350;2023-02-28T04:13:55;3.50;99.40
14670;DHT22;7423;48.722;9.350;2023-02-28T04:16:22;3.50;99.40
14670;DHT22;7423;48.722;9.350;2023-02-28T04:19:02;3.50;99.40
14670;DHT22;7423;48.722;9.350;2023-02-28T04:21:34;3.60;99.40
14670;DHT22;7423;48.722;9.350;2023-02-28T04:24:03;3.60;99.50
14670;DHT22;7423;48.722;9.350;2023-02-28T04:26:35;3.50;99.60
14670;DHT22;7423;48.722;9.350;2023-02-28T04:29:05;3.60;99.60
14670;DHT22;7423;48.722;9.350;2023-02-28T04:31:32;3.60;99.60
14670;DHT22;7423;48.722;9.350;2023-02-28T04:34:00;3.60;99.60
14670;DHT22;7423;48.722;9.350;2023-02-28T04:36:27;3.60;99.60
14670;DHT22;7423;48.722;9.350;2023-02-28T04:38:54;3.60;99.60
14670;DHT22;7423;48.722;9.350;2023-02-28T04:41:21;3.60;99.70
14670;DHT22;7423;48.722;9.350;2023-02-28T04:43:51;3.60;99.80
14670;DHT22;7423;48.722;9.350;2023-02-28T04:46:19;3.60;99.80
14670;DHT22;7423;48.722;9.350;2023-02-28T04:48:46;3.60;99.80
14670;DHT22;7423;48.722;9.350;2023-02-28T04:51:15;3.60;99.80
14670;DHT22;7423;48.722;9.350;2023-02-28T04:53:43;3.60;99.80
14670;DHT22;7423;48.722;9.350;2023-02-28T04:56:12;3.60;99.80
14670;DHT22;7423;48.722;9.350;2023-02-28T04:58:40;3.60;99.90
14670;DHT22;7423;48.722;9.350;2023-02-28T05:01:18;3.70;99.90
14670;DHT22;7423;48.722;9.350;2023-02-28T05:03:54;3.60;99.90
14670;DHT22;7423;48.722;9.350;2023-02-28T05:06:24;3.60;99.90
14670;DHT22;7423;48.722;9.350;2023-02-28T05:08:52;3.70;99.90
14670;DHT22;7423;48.722;9.350;2023-02-28T05:11:23;3.60;99.90
14670;DHT22;7423;48.722;9.350;2023-02-28T05:13:52;3.60;99.90
14670;DHT22;7423;48.722;9.350;2023-02-28T05:16:20;3.60;99.90
14670;DHT22;7423;48.722;9.350;2023-02-28T05:18:47;3.60;99.90
14670;DHT22;7423;48.722;9.350;2023-02-28T05:21:30;3.60;99.90
14670;DHT22;7423;48.722;9.350;2023-02-28T05:24:01;3.60;99.90
14670;DHT22;7423;48.722;9.350;2023-02-28T05:26:29;3.60;99.90
14670;DHT22;7423;48.722;9.350;2023-02-28T05:28:57;3.70;99.90
14670;DHT22;7423;48.722;9.350;2023-02-28T05:31:23;3.70;99.90
14670;DHT22;7423;48.722;9.350;2023-02-28T05:33:51;3.70;99.90
14670;DHT22;7423;48.722;9.350;2023-02-28T05:36:18;3.70;99.90
14670;DHT22;7423;48.722;9.350;2023-02-28T05:38:49;3.70;99.90
14670;DHT22;7423;48.722;9.350;2023-02-28T05:41:17;3.70;99.90
14670;DHT22;7423;48.722;9.350;2023-02-28T05:43:46;3.70;99.90
14670;DHT22;7423;48.722;9.350;2023-02-28T05:46:14;3.70;99.90
14670;DHT22;7423;48.722;9.350;2023-02-28T05:48:42;3.70;99.90
14670;DHT22;7423;48.722;9.350;2023-02-28T05:51:13;3.70;99.90
14670;DHT22;7423;48.722;9.350;2023-02-28T05:53:39;3.80;99.90
14670;DHT22;7423;48.722;9.350;2023-02-28T05:56:07;3.80;99.90
14670;DHT22;7423;48.722;9.350;2023-02-28T05:58:33;3.80;99.90
14670;DHT22;7423;48.722;9.350;2023-02-28T06:01:20;3.80;99.80
14670;DHT22;7423;48.722;9.350;2023-02-28T06:03:50;3.80;99.80
14670;DHT22;7423;48.722;9.350;2023-02-28T06:06:18;3.80;99.90
14670;DHT22;7423;48.722;9.350;2023-02-28T06:08:45;3.80;99.90
14670;DHT22;7423;48.722;9.350;2023-02-28T06:11:12;3.80;99.90
14670;DHT22;7423;48.722;9.350;2023-02-28T06:13:39;3.80;99.90
14670;DHT22;7423;48.722;9.350;2023-02-28T06:16:06;3.80;99.80
14670;DHT22;7423;48.722;9.350;2023-02-28T06:18:34;3.80;99.90
14670;DHT22;7423;48.722;9.350;2023-02-28T06:21:01;3.80;99.90
14670;DHT22;7423;48.722;9.350;2023-02-28T06:23:28;3.80;99.90
14670;DHT22;7423;48.722;9.350;2023-02-28T06:25:55;3.80;99.90
14670;DHT22;7423;48.722;9.350;2023-02-28T06:28:25;3.90;99.80
14670;DHT22;7423;48.722;9.350;2023-02-28T06:30:52;3.90;99.90
14670;DHT22;7423;48.722;9.350;2023-02-28T06:33:19;3.90;99.80
14670;DHT22;7423;48.722;9.350;2023-02-28T06:35:47;3.90;99.80
14670;DHT22;7423;48.722;9.350;2023-02-28T06:38:16;3.90;99.80
14670;DHT22;7423;48.722;9.350;2023-02-28T06:40:48;3.90;99.90
14670;DHT22;7423;48.722;9.350;2023-02-28T06:43:23;3.90;99.90
14670;DHT22;7423;48.722;9.350;2023-02-28T06:45:55;3.80;99.90
14670;DHT22;7423;48.722;9.350;2023-02-28T06:48:23;3.90;99.90
14670;DHT22;7423;48.722;9.350;2023-02-28T06:50:50;3.90;99.80
14670;DHT22;7423;48.722;9.350;2023-02-28T06:53:18;3.90;99.70
14670;DHT22;7423;48.722;9.350;2023-02-28T06:55:46;4.00;99.70
14670;DHT22;7423;48.722;9.350;2023-02-28T06:58:13;4.00;99.70
14670;DHT22;7423;48.722;9.350;2023-02-28T07:00:42;3.90;99.80
14670;DHT22;7423;48.722;9.350;2023-02-28T07:03:11;3.90;99.70
14670;DHT22;7423;48.722;9.350;2023-02-28T07:05:39;4.00;99.70
14670;DHT22;7423;48.722;9.350;2023-02-28T07:08:06;4.00;99.70
14670;DHT22;7423;48.722;9.350;2023-02-28T07:10:34;4.00;99.70
14670;DHT22;7423;48.722;9.350;2023-02-28T07:13:05;4.10;99.60
14670;DHT22;7423;48.722;9.350;2023-02-28T07:15:32;4.00;99.60
14670;DHT22;7423;48.722;9.350;2023-02-28T07:17:59;4.10;99.50
14670;DHT22;7423;48.722;9.350;2023-02-28T07:20:25;4.10;99.50
14670;DHT22;7423;48.722;9.350;2023-02-28T07:22:52;4.10;99.50
14670;DHT22;7423;48.722;9.350;2023-02-28T07:25:27;4.10;99.50
14670;DHT22;7423;48.722;9.350;2023-02-28T07:27:55;4.20;99.40
14670;DHT22;7423;48.722;9.350;2023-02-28T07:30:22;4.20;99.50
14670;DHT22;7423;48.722;9.350;2023-02-28T07:32:49;4.20;99.50
14670;DHT22;7423;48.722;9.350;2023-02-28T07:35:16;4.20;99.60
14670;DHT22;7423;48.722;9.350;2023-02-28T07:37:43;4.20;99.50
14670;DHT22;7423;48.722;9.350;2023-02-28T07:40:11;4.20;99.60
14670;DHT22;7423;48.722;9.350;2023-02-28T07:42:39;4.20;99.60
14670;DHT22;7423;48.722;9.350;2023-02-28T07:45:08;4.20;99.60
14670;DHT22;7423;48.722;9.350;2023-02-28T07:47:38;4.20;99.50
14670;DHT22;7423;48.722;9.350;2023-02-28T07:50:07;4.20;99.50
14670;DHT22;7423;48.722;9.350;2023-02-28T07:52:37;4.20;99.50
14670;DHT22;7423;48.722;9.350;2023-02-28T07:55:05;4.30;99.50
14670;DHT22;7423;48.722;9.350;2023-02-28T07:57:33;4.30;99.50
14670;DHT22;7423;48.722;9.350;2023-02-28T08:00:00;4.20;99.50
14670;DHT22;7423;48.722;9.350;2023-02-28T08:02:27;4.30;99.50
14670;DHT22;7423;48.722;9.350;2023-02-28T08:04:54;4.30;99.50
14670;DHT22;7423;48.722;9.350;2023-02-28T08:07:21;4.30;99.50
14670;DHT22;7423;48.722;9.350;2023-02-28T08:09:49;4.30;99.50
14670;DHT22;7423;48.722;9.350;2023-02-28T08:12:15;4.30;99.40
14670;DHT22;7423;48.722;9.350;2023-02-28T08:14:42;4.30;99.40
14670;DHT22;7423;48.722;9.350;2023-02-28T08:17:10;4.30;99.40
14670;DHT22;7423;48.722;9.350;2023-02-28T08:19:37;4.30;99.40
14670;DHT22;7423;48.722;9.350;2023-02-28T08:22:04;4.30;99.40
14670;DHT22;7423;48.722;9.350;2023-02-28T08:24:31;4.30;99.40
14670;DHT22;7423;48.722;9.350;2023-02-28T08:26:57;4.40;99.30
14670;DHT22;7423;48.722;9.350;2023-02-28T08:29:24;4.40;99.30
14670;DHT22;7423;48.722;9.350;2023-02-28T08:31:51;4.40;99.30
14670;DHT22;7423;48.722;9.350;2023-02-28T08:34:18;4.40;99.30
14670;DHT22;7423;48.722;9.350;2023-02-28T08:36:45;4.40;99.30
14670;DHT22;7423;48.722;9.350;2023-02-28T08:39:12;4.50;99.30
14670;DHT22;7423;48.722;9.350;2023-02-28T08:41:39;4.50;99.30
14670;DHT22;7423;48.722;9.350;2023-02-28T08:44:07;4.50;99.60
14670;DHT22;7423;48.722;9.350;2023-02-28T08:46:34;4.50;99.30
14670;DHT22;7423;48.722;9.350;2023-02-28T08:49:01;4.50;99.30
14670;DHT22;7423;48.722;9.350;2023-02-28T08:51:28;4.50;99.40
14670;DHT22;7423;48.722;9.350;2023-02-28T08:53:59;4.50;99.70
14670;DHT22;7423;48.722;9.350;2023-02-28T08:56:27;4.50;99.30
14670;DHT22;7423;48.722;9.350;2023-02-28T08:58:55;4.50;99.30
14670;DHT22;7423;48.722;9.350;2023-02-28T09:01:26;4.50;99.30
14670;DHT22;7423;48.722;9.350;2023-02-28T09:03:55;4.50;99.30
14670;DHT22;7423;48.722;9.350;2023-02-28T09:06:26;4.50;99.20
14670;DHT22;7423;48.722;9.350;2023-02-28T09:08:56;4.60;99.20
14670;DHT22;7423;48.722;9.350;2023-02-28T09:11:25;4.50;99.10
14670;DHT22;7423;48.722;9.350;2023-02-28T09:13:52;4.50;99.20
14670;DHT22;7423;48.722;9.350;2023-02-28T09:16:19;4.60;99.20
14670;DHT22;7423;48.722;9.350;2023-02-28T09:18:46;4.60;99.30
14670;DHT22;7423;48.722;9.350;2023-02-28T09:21:16;4.60;99.20
14670;DHT22;7423;48.722;9.350;2023-02-28T09:23:45;4.60;99.20
14670;DHT22;7423;48.722;9.350;2023-02-28T09:26:17;4.70;99.20
14670;DHT22;7423;48.722;9.350;2023-02-28T09:28:50;4.70;99.00
14670;DHT22;7423;48.722;9.350;2023-02-28T09:31:20;4.80;99.00
14670;DHT22;7423;48.722;9.350;2023-02-28T09:33:50;4.80;99.00
14670;DHT22;7423;48.722;9.350;2023-02-28T09:36:18;4.80;99.00
14670;DHT22;7423;48.722;9.350;2023-02-28T09:38:45;4.80;99.00
14670;DHT22;7423;48.722;9.350;2023-02-28T09:41:17;4.90;99.00
14670;DHT22;7423;48.722;9.350;2023-02-28T09:44:02;5.00;98.70
14670;DHT22;7423;48.722;9.350;2023-02-28T09:46:37;5.10;98.80
14670;DHT22;7423;48.722;9.350;2023-02-28T09:49:12;5.30;98.10
14670;DHT22;7423;48.722;9.350;2023-02-28T09:54:20;5.40;98.00
14670;DHT22;7423;48.722;9.350;2023-02-28T09:59:39;5.40;97.90
14670;DHT22;7423;48.722;9.350;2023-02-28T10:05:41;5.50;97.70
14670;DHT22;7423;48.722;9.350;2023-02-28T10:08:18;5.60;97.50
14670;DHT22;7423;48.722;9.350;2023-02-28T10:10:57;5.60;97.20
14670;DHT22;7423;48.722;9.350;2023-02-28T10:16:11;5.70;97.40
14670;DHT22;7423;48.722;9.350;2023-02-28T10:18:46;5.90;97.10
14670;DHT22;7423;48.722;9.350;2023-02-28T10:24:16;5.80;97.10
14670;DHT22;7423;48.722;9.350;2023-02-28T10:26:48;5.90;97.20
14670;DHT22;7423;48.722;9.350;2023-02-28T10:29:15;5.90;97.20
14670;DHT22;7423;48.722;9.350;2023-02-28T10:31:42;6.00;97.20
14670;DHT22;7423;48.722;9.350;2023-02-28T10:34:12;6.00;97.00
14670;DHT22;7423;48.722;9.350;2023-02-28T10:36:41;6.10;97.10
14670;DHT22;7423;48.722;9.350;2023-02-28T10:39:40;6.20;97.00
14670;DHT22;7423;48.722;9.350;2023-02-28T10:42:25;6.20;96.90
14670;DHT22;7423;48.722;9.350;2023-02-28T10:45:12;6.30;96.90
14670;DHT22;7423;48.722;9.350;2023-02-28T10:47:55;6.40;96.70
14670;DHT22;7423;48.722;9.350;2023-02-28T10:53:14;6.60;96.30
14670;DHT22;7423;48.722;9.350;2023-02-28T11:01:21;6.90;96.20
14670;DHT22;7423;48.722;9.350;2023-02-28T11:03:52;7.00;95.90
14670;DHT22;7423;48.722;9.350;2023-02-28T11:06:22;7.00;96.10
14670;DHT22;7423;48.722;9.350;2023-02-28T11:08:56;6.90;96.20
14670;DHT22;7423;48.722;9.350;2023-02-28T11:11:27;6.90;96.20
14670;DHT22;7423;48.722;9.350;2023-02-28T11:14:02;7.10;96.20
14670;DHT22;7423;48.722;9.350;2023-02-28T11:16:35;7.20;96.10
14670;DHT22;7423;48.722;9.350;2023-02-28T11:19:06;7.20;95.70
14670;DHT22;7423;48.722;9.350;2023-02-28T11:21:52;7.00;95.80
14670;DHT22;7423;48.722;9.350;2023-02-28T11:24:33;7.10;95.90
14670;DHT22;7423;48.722;9.350;2023-02-28T11:27:03;7.30;95.70
14670;DHT22;7423;48.722;9.350;2023-02-28T11:29:32;7.10;95.90
14670;DHT22;7423;48.722;9.350;2023-02-28T11:32:18;7.20;96.10
14670;DHT22;7423;48.722;9.350;2023-02-28T11:37:38;7.40;95.90
14670;DHT22;7423;48.722;9.350;2023-02-28T11:40:18;7.50;95.80
14670;DHT22;7423;48.722;9.350;2023-02-28T11:43:06;7.60;95.70
14670;DHT22;7423;48.722;9.350;2023-02-28T11:48:22;7.50;96.20
14670;DHT22;7423;48.722;9.350;2023-02-28T11:51:20;7.60;95.90
14670;DHT22;7423;48.722;9.350;2023-02-28T11:56:47;7.40;96.10
14670;DHT22;7423;48.722;9.350;2023-02-28T12:05:48;7.50;96.10
14670;DHT22;7423;48.722;9.350;2023-02-28T12:08:51;7.60;96.00
14670;DHT22;7423;48.722;9.350;2023-02-28T12:14:39;7.90;95.90
14670;DHT22;7423;48.722;9.350;2023-02-28T12:20:44;8.10;95.60
14670;DHT22;7423;48.722;9.350;2023-02-28T12:23:26;8.20;95.40
14670;DHT22;7423;48.722;9.350;2023-02-28T12:29:21;8.30;95.20
14670;DHT22;7423;48.722;9.350;2023-02-28T12:32:09;8.40;95.20
14670;DHT22;7423;48.722;9.350;2023-02-28T12:34:46;8.40;95.20
14670;DHT22;7423;48.722;9.350;2023-02-28T12:37:21;8.40;95.20
14670;DHT22;7423;48.722;9.350;2023-02-28T12:39:55;8.40;95.20
14670;DHT22;7423;48.722;9.350;2023-02-28T12:42:36;8.40;95.10
14670;DHT22;7423;48.722;9.350;2023-02-28T12:45:16;8.50;95.00
14670;DHT22;7423;48.722;9.350;2023-02-28T12:47:52;8.60;94.90
14670;DHT22;7423;48.722;9.350;2023-02-28T12:50:24;8.60;95.20
14670;DHT22;7423;48.722;9.350;2023-02-28T12:52:59;8.60;95.00
14670;DHT22;7423;48.722;9.350;2023-02-28T13:01:18;8.30;95.40
14670;DHT22;7423;48.722;9.350;2023-02-28T13:04:39;8.20;95.20
14670;DHT22;7423;48.722;9.350;2023-02-28T13:10:18;8.30;95.70
14670;DHT22;7423;48.722;9.350;2023-02-28T13:12:53;8.20;95.50
14670;DHT22;7423;48.722;9.350;2023-02-28T13:15:26;8.40;95.70
14670;DHT22;7423;48.722;9.350;2023-02-28T13:17:57;8.60;95.50
14670;DHT22;7423;48.722;9.350;2023-02-28T13:20:29;8.70;95.40
14670;DHT22;7423;48.722;9.350;2023-02-28T13:23:00;8.80;95.20
14670;DHT22;7423;48.722;9.350;2023-02-28T13:28:10;8.70;95.40
14670;DHT22;7423;48.722;9.350;2023-02-28T13:33:29;8.80;94.80
14670;DHT22;7423;48.722;9.350;2023-02-28T13:51:51;8.70;95.00
14670;DHT22;7423;48.722;9.350;2023-02-28T13:57:12;9.00;94.90
14670;DHT22;7423;48.722;9.350;2023-02-28T14:00:40;8.80;94.50
14670;DHT22;7423;48.722;9.350;2023-02-28T14:03:33;8.40;94.60
14670;DHT22;7423;48.722;9.350;2023-02-28T14:09:28;8.60;95.40
14670;DHT22;7423;48.722;9.350;2023-02-28T14:21:31;9.30;94.70
14670;DHT22;7423;48.722;9.350;2023-02-28T14:24:25;9.40;94.60
14670;DHT22;7423;48.722;9.350;2023-02-28T14:35:20;9.50;94.50
14670;DHT22;7423;48.722;9.350;2023-02-28T14:37:56;9.50;94.50
14670;DHT22;7423;48.722;9.350;2023-02-28T14:40:33;9.60;94.50
14670;DHT22;7423;48.722;9.350;2023-02-28T14:43:03;9.30;93.70
14670;DHT22;7423;48.722;9.350;2023-02-28T14:45:35;9.00;94.20
14670;DHT22;7423;48.722;9.350;2023-02-28T14:48:09;9.20;94.60
14670;DHT22;7423;48.722;9.350;2023-02-28T14:50:37;9.30;94.70
14670;DHT22;7423;48.722;9.350;2023-02-28T14:53:09;9.50;94.60
14670;DHT22;7423;48.722;9.350;2023-02-28T14:55:48;9.50;94.50
14670;DHT22;7423;48.722;9.350;2023-02-28T15:00:52;9.60;94.50
14670;DHT22;7423;48.722;9.350;2023-02-28T15:03:35;9.70;94.30
14670;DHT22;7423;48.722;9.350;2023-02-28T15:08:41;9.70;94.00
14670;DHT22;7423;48.722;9.350;2023-02-28T15:16:32;9.70;94.30
14670;DHT22;7423;48.722;9.350;2023-02-28T15:19:18;9.80;94.10
14670;DHT22;7423;48.722;9.350;2023-02-28T15:21:50;9.80;94.00
14670;DHT22;7423;48.722;9.350;2023-02-28T15:27:26;9.80;94.10
14670;DHT22;7423;48.722;9.350;2023-02-28T15:29:57;9.80;93.90
14670;DHT22;7423;48.722;9.350;2023-02-28T15:32:34;9.80;93.80
14670;DHT22;7423;48.722;9.350;2023-02-28T15:35:27;9.70;94.20
14670;DHT22;7423;48.722;9.350;2023-02-28T15:40:28;9.70;94.30
14670;DHT22;7423;48.722;9.350;2023-02-28T15:43:07;9.70;94.40
14670;DHT22;7423;48.722;9.350;2023-02-28T15:45:47;9.80;94.20
14670;DHT22;7423;48.722;9.350;2023-02-28T15:48:22;9.80;93.90
14670;DHT22;7423;48.722;9.350;2023-02-28T15:50:54;9.80;94.30
14670;DHT22;7423;48.722;9.350;2023-02-28T15:53:30;9.80;94.60
14670;DHT22;7423;48.722;9.350;2023-02-28T15:56:02;9.90;94.50
14670;DHT22;7423;48.722;9.350;2023-02-28T15:58:31;9.90;93.90
14670;DHT22;7423;48.722;9.350;2023-02-28T16:01:26;10.00;93.70
14670;DHT22;7423;48.722;9.350;2023-02-28T16:04:04;10.00;93.50
14670;DHT22;7423;48.722;9.350;2023-02-28T16:06:38;10.00;93.40
14670;DHT22;7423;48.722;9.350;2023-02-28T16:09:09;10.00;93.50
14670;DHT22;7423;48.722;9.350;2023-02-28T16:11:51;10.00;93.50
14670;DHT22;7423;48.722;9.350;2023-02-28T16:14:30;10.00;93.50
14670;DHT22;7423;48.722;9.350;2023-02-28T16:17:21;9.90;93.60
14670;DHT22;7423;48.722;9.350;2023-02-28T16:19:50;9.90;93.70
14670;DHT22;7423;48.722;9.350;2023-02-28T16:22:17;9.90;93.80
14670;DHT22;7423;48.722;9.350;2023-02-28T16:24:44;9.80;93.80
14670;DHT22;7423;48.722;9.350;2023-02-28T16:27:17;9.80;93.50
14670;DHT22;7423;48.722;9.350;2023-02-28T16:29:47;9.80;94.20
14670;DHT22;7423;48.722;9.350;2023-02-28T16:32:15;10.00;94.00
14670;DHT22;7423;48.722;9.350;2023-02-28T16:34:43;9.60;93.90
14670;DHT22;7423;48.722;9.350;2023-02-28T16:37:15;9.50;93.90
14670;DHT22;7423;48.722;9.350;2023-02-28T16:39:44;9.40;94.00
14670;DHT22;7423;48.722;9.350;2023-02-28T16:42:21;9.40;94.30
14670;DHT22;7423;48.722;9.350;2023-02-28T16:44:50;9.40;94.40
14670;DHT22;7423;48.722;9.350;2023-02-28T16:47:17;9.30;94.20
14670;DHT22;7423;48.722;9.350;2023-02-28T16:49:44;9.30;94.10
14670;DHT22;7423;48.722;9.350;2023-02-28T16:52:11;9.30;94.10
14670;DHT22;7423;48.722;9.350;2023-02-28T16:54:39;9.20;94.10
14670;DHT22;7423;48.722;9.350;2023-02-28T16:57:18;9.10;94.10
14670;DHT22;7423;48.722;9.350;2023-02-28T16:59:48;9.10;94.20
14670;DHT22;7423;48.722;9.350;2023-02-28T17:02:18;9.10;94.20
14670;DHT22;7423;48.722;9.350;2023-02-28T17:04:48;9.00;94.20
14670;DHT22;7423;48.722;9.350;2023-02-28T17:07:16;9.00;94.30
14670;DHT22;7423;48.722;9.350;2023-02-28T17:09:44;8.90;94.20
14670;DHT22;7423;48.722;9.350;2023-02-28T17:12:12;8.90;94.20
14670;DHT22;7423;48.722;9.350;2023-02-28T17:14:40;8.80;94.30
14670;DHT22;7423;48.722;9.350;2023-02-28T17:17:09;8.80;94.30
14670;DHT22;7423;48.722;9.350;2023-02-28T17:19:39;8.70;94.30
14670;DHT22;7423;48.722;9.350;2023-02-28T17:22:09;8.70;94.40
14670;DHT22;7423;48.722;9.350;2023-02-28T17:24:36;8.60;94.40
14670;DHT22;7423;48.722;9.350;2023-02-28T17:27:03;8.60;94.50
14670;DHT22;7423;48.722;9.350;2023-02-28T17:29:30;8.50;94.50
14670;DHT22;7423;48.722;9.350;2023-02-28T17:31:57;8.50;94.60
14670;DHT22;7423;48.722;9.350;2023-02-28T17:34:34;8.50;94.50
14670;DHT22;7423;48.722;9.350;2023-02-28T17:37:01;8.40;94.50
14670;DHT22;7423;48.722;9.350;2023-02-28T17:39:29;8.40;94.60
14670;DHT22;7423;48.722;9.350;2023-02-28T17:41:57;8.30;94.60
14670;DHT22;7423;48.722;9.350;2023-02-28T17:44:24;8.30;94.70
14670;DHT22;7423;48.722;9.350;2023-02-28T17:46:53;8.20;94.80
14670;DHT22;7423;48.722;9.350;2023-02-28T17:49:20;8.20;94.80
14670;DHT22;7423;48.722;9.350;2023-02-28T17:51:48;8.20;94.70
14670;DHT22;7423;48.722;9.350;2023-02-28T17:54:15;8.10;94.70
14670;DHT22;7423;48.722;9.350;2023-02-28T17:56:44;8.10;94.80
14670;DHT22;7423;48.722;9.350;2023-02-28T17:59:12;8.10;94.70
14670;DHT22;7423;48.722;9.350;2023-02-28T18:01:39;8.10;94.80
14670;DHT22;7423;48.722;9.350;2023-02-28T18:04:06;8.10;94.80
14670;DHT22;7423;48.722;9.350;2023-02-28T18:06:41;8.00;94.80
14670;DHT22;7423;48.722;9.350;2023-02-28T18:09:15;8.00;94.80
14670;DHT22;7423;48.722;9.350;2023-02-28T18:11:50;8.00;94.90
14670;DHT22;7423;48.722;9.350;2023-02-28T18:14:19;7.90;94.80
14670;DHT22;7423;48.722;9.350;2023-02-28T18:16:47;7.90;94.90
14670;DHT22;7423;48.722;9.350;2023-02-28T18:19:14;7.80;95.00
14670;DHT22;7423;48.722;9.350;2023-02-28T18:21:44;7.80;95.00
14670;DHT22;7423;48.722;9.350;2023-02-28T18:24:12;7.80;95.00
14670;DHT22;7423;48.722;9.350;2023-02-28T18:26:40;7.80;95.00
14670;DHT22;7423;48.722;9.350;2023-02-28T18:29:08;7.70;95.00
14670;DHT22;7423;48.722;9.350;2023-02-28T18:31:35;7.70;95.10
14670;DHT22;7423;48.722;9.350;2023-02-28T18:34:02;7.60;95.00
14670;DHT22;7423;48.722;9.350;2023-02-28T18:36:29;7.60;95.10
14670;DHT22;7423;48.722;9.350;2023-02-28T18:38:56;7.50;95.10
14670;DHT22;7423;48.722;9.350;2023-02-28T18:41:24;7.50;95.20
14670;DHT22;7423;48.722;9.350;2023-02-28T18:43:51;7.50;95.30
14670;DHT22;7423;48.722;9.350;2023-02-28T18:46:20;7.40;95.30
14670;DHT22;7423;48.722;9.350;2023-02-28T18:48:47;7.40;95.40
14670;DHT22;7423;48.722;9.350;2023-02-28T18:51:17;7.30;95.50
14670;DHT22;7423;48.722;9.350;2023-02-28T18:53:48;7.30;95.50
14670;DHT22;7423;48.722;9.350;2023-02-28T18:56:17;7.20;95.60
14670;DHT22;7423;48.722;9.350;2023-02-28T18:58:45;7.20;95.60
14670;DHT22;7423;48.722;9.350;2023-02-28T19:01:22;7.10;95.80
14670;DHT22;7423;48.722;9.350;2023-02-28T19:03:56;7.10;95.90
14670;DHT22;7423;48.722;9.350;2023-02-28T19:06:24;7.10;95.90
14670;DHT22;7423;48.722;9.350;2023-02-28T19:08:59;7.00;96.10